Time;durP1;ratioP1;P1;durP2;ratioP2;P2;SDS_P1;SDS_P2;PMS_P1;PMS_P2;Temp;Humidity;BMP_temperature;BMP_pressure;BME280_temperature;BME280_humidity;BME280_pressure;Samples;Min_cycle;Max_cycle;Signal;HPM_P1;HPM_P2
2021/12/20 00:00:11;;;;;;;5.30;2.63;;;6.00;99.90;;;;;;5051566;28;20452;-76
2021/12/20 00:02:38;;;;;;;8.80;2.40;;;6.00;99.90;;;;;;5031583;28;20828;-77
2021/12/20 00:05:06;;;;;;;8.70;2.40;;;6.00;99.90;;;;;;5031431;28;20552;-76
2021/12/20 00:07:32;;;;;;;4.03;2.70;;;6.00;99.90;;;;;;5031541;28;20469;-76
2021/12/20 00:09:59;;;;;;;3.30;2.23;;;6.00;99.90;;;;;;5035193;28;20522;-76
2021/12/20 00:12:26;;;;;;;5.53;2.30;;;6.00;99.90;;;;;;5039647;28;20450;-76
2021/12/20 00:14:52;;;;;;;5.13;2.27;;;6.00;99.90;;;;;;5051176;28;20472;-76
2021/12/20 00:17:20;;;;;;;2.43;2.17;;;6.00;99.90;;;;;;5034660;28;21031;-76
2021/12/20 00:19:47;;;;;;;2.03;1.83;;;6.00;99.90;;;;;;5031373;28;20472;-75
2021/12/20 00:22:14;;;;;;;3.17;2.20;;;6.00;99.90;;;;;;5031474;28;20462;-76
2021/12/20 00:24:40;;;;;;;4.53;2.40;;;6.00;99.90;;;;;;5031275;28;20523;-77
2021/12/20 00:27:09;;;;;;;2.50;2.20;;;6.00;99.90;;;;;;5031220;28;20446;-76
2021/12/20 00:29:36;;;;;;;3.63;2.27;;;6.00;99.90;;;;;;5031400;28;20449;-76
2021/12/20 00:32:03;;;;;;;4.50;2.03;;;6.00;99.90;;;;;;5032525;28;20453;-76
2021/12/20 00:34:31;;;;;;;3.60;2.20;;;6.00;99.90;;;;;;5031212;28;20905;-76
2021/12/20 00:37:03;;;;;;;6.83;2.77;;;6.00;99.90;;;;;;5048550;28;20496;-76
2021/12/20 00:42:14;;;;;;;3.13;2.20;;;6.00;99.90;;;;;;5030742;28;20464;-76
2021/12/20 00:44:41;;;;;;;5.17;2.00;;;6.00;99.90;;;;;;5031120;28;20531;-77
2021/12/20 00:47:08;;;;;;;4.00;1.70;;;5.90;99.90;;;;;;5046661;28;20474;-76
2021/12/20 00:49:36;;;;;;;4.90;2.23;;;6.00;99.90;;;;;;5050693;28;20545;-77
2021/12/20 00:52:03;;;;;;;10.73;2.53;;;6.00;99.90;;;;;;5050986;28;20510;-76
2021/12/20 00:54:30;;;;;;;3.47;1.90;;;5.90;99.90;;;;;;5050438;28;20480;-76
2021/12/20 00:56:57;;;;;;;5.70;2.03;;;5.90;99.90;;;;;;5050835;28;20510;-76
2021/12/20 00:59:23;;;;;;;3.67;2.03;;;5.90;99.90;;;;;;5050767;28;20612;-76
2021/12/20 01:01:51;;;;;;;6.97;2.33;;;5.90;99.90;;;;;;5036238;28;20453;-76
2021/12/20 01:04:18;;;;;;;9.43;2.30;;;6.00;99.90;;;;;;5038266;28;21058;-76
2021/12/20 01:06:46;;;;;;;11.20;1.97;;;6.00;99.90;;;;;;5050745;28;20797;-76
2021/12/20 01:09:13;;;;;;;5.10;2.20;;;6.00;99.90;;;;;;5037715;28;20872;-76
2021/12/20 01:11:42;;;;;;;4.27;2.30;;;5.90;99.90;;;;;;5046379;28;20445;-76
2021/12/20 01:14:08;;;;;;;2.53;2.00;;;5.90;99.90;;;;;;5050801;28;20479;-76
2021/12/20 01:16:35;;;;;;;9.00;2.20;;;5.90;99.90;;;;;;5040266;28;20481;-76
2021/12/20 01:19:02;;;;;;;7.07;2.13;;;5.90;99.90;;;;;;5030841;28;20815;-76
2021/12/20 01:21:29;;;;;;;7.43;2.20;;;5.90;99.90;;;;;;5030791;28;20885;-76
2021/12/20 01:23:57;;;;;;;11.13;2.60;;;5.90;99.90;;;;;;5030377;28;20488;-76
2021/12/20 01:26:24;;;;;;;4.80;2.40;;;5.80;99.90;;;;;;5030706;28;20453;-76
2021/12/20 01:28:51;;;;;;;9.27;2.30;;;5.80;99.90;;;;;;5030938;28;20448;-76
2021/12/20 01:31:17;;;;;;;9.10;2.60;;;5.80;99.90;;;;;;5032084;28;20449;-76
2021/12/20 01:33:44;;;;;;;10.17;2.40;;;5.80;99.90;;;;;;5035565;28;20521;-76
2021/12/20 01:36:11;;;;;;;6.30;2.90;;;5.80;99.90;;;;;;5050123;28;20456;-76
2021/12/20 01:38:38;;;;;;;4.80;2.33;;;5.70;99.90;;;;;;5045855;28;20481;-76
2021/12/20 01:41:07;;;;;;;6.37;2.10;;;5.70;99.90;;;;;;5047705;28;20502;-76
2021/12/20 01:43:34;;;;;;;5.63;2.13;;;5.70;99.90;;;;;;5050619;28;20460;-76
2021/12/20 01:46:01;;;;;;;2.80;2.03;;;5.70;99.90;;;;;;5048706;28;20559;-76
2021/12/20 01:48:30;;;;;;;5.33;2.27;;;5.70;99.90;;;;;;5050185;28;20448;-76
2021/12/20 01:53:39;;;;;;;5.17;2.50;;;5.70;99.90;;;;;;5047522;28;21062;-76
2021/12/20 01:56:08;;;;;;;7.00;3.17;;;5.70;99.90;;;;;;5050072;28;20472;-76
2021/12/20 01:58:35;;;;;;;9.63;3.07;;;5.70;99.90;;;;;;5049917;28;20495;-76
2021/12/20 02:03:57;;;;;;;5.20;2.10;;;5.60;99.90;;;;;;5026432;28;20468;-76
2021/12/20 02:06:29;;;;;;;6.60;2.70;;;5.60;99.90;;;;;;5030076;28;20457;-76
2021/12/20 02:08:56;;;;;;;9.10;2.60;;;5.60;99.90;;;;;;5030344;28;20949;-76
2021/12/20 02:11:24;;;;;;;3.47;2.40;;;5.50;99.90;;;;;;5043118;28;20509;-76
2021/12/20 02:13:51;;;;;;;5.03;2.20;;;5.50;99.90;;;;;;5053096;28;20463;-76
2021/12/20 02:16:18;;;;;;;3.37;2.07;;;5.50;99.90;;;;;;5049384;28;20509;-76
2021/12/20 02:18:45;;;;;;;5.83;2.20;;;5.50;99.90;;;;;;5053683;28;20906;-76
2021/12/20 02:21:13;;;;;;;9.10;2.77;;;5.50;99.90;;;;;;5051878;28;20456;-76
2021/12/20 02:23:40;;;;;;;8.20;3.07;;;5.50;99.90;;;;;;5053319;28;20452;-76
2021/12/20 02:26:11;;;;;;;7.83;2.17;;;5.40;99.90;;;;;;5036044;28;20481;-75
2021/12/20 02:28:41;;;;;;;12.20;2.73;;;5.40;99.90;;;;;;5035537;28;20484;-75
2021/12/20 02:39:25;;;;;;;13.13;3.03;;;5.40;99.90;;;;;;5037211;28;20436;-75
2021/12/20 02:41:51;;;;;;;8.30;2.30;;;5.40;99.90;;;;;;5052695;28;20494;-75
2021/12/20 02:44:20;;;;;;;9.00;3.20;;;5.40;99.90;;;;;;5052192;28;21018;-75
2021/12/20 02:46:51;;;;;;;8.27;2.73;;;5.40;99.90;;;;;;5038111;28;20457;-75
2021/12/20 02:49:20;;;;;;;7.53;2.00;;;5.40;99.90;;;;;;5033434;28;20453;-75
2021/12/20 02:51:50;;;;;;;4.80;2.17;;;5.40;99.90;;;;;;5051570;28;20444;-75
2021/12/20 02:54:18;;;;;;;3.97;2.20;;;5.30;99.90;;;;;;5052564;28;20487;-75
2021/12/20 02:56:46;;;;;;;13.53;2.30;;;5.40;99.90;;;;;;5052021;28;20452;-75
2021/12/20 02:59:13;;;;;;;10.27;2.63;;;5.30;99.90;;;;;;5050311;28;20456;-75
2021/12/20 03:01:43;;;;;;;8.40;2.67;;;5.30;99.90;;;;;;5045108;28;20901;-78
2021/12/20 03:04:10;;;;;;;8.57;2.47;;;5.40;99.90;;;;;;5052717;28;20529;-75
2021/12/20 03:06:41;;;;;;;10.20;3.17;;;5.30;99.90;;;;;;5052415;28;20453;-75
2021/12/20 03:09:12;;;;;;;10.77;3.10;;;5.40;99.90;;;;;;5052780;28;20674;-76
2021/12/20 03:11:40;;;;;;;7.53;2.87;;;5.30;99.90;;;;;;5037335;28;20588;-76
2021/12/20 03:14:15;;;;;;;10.60;2.90;;;5.30;99.90;;;;;;5033036;28;20469;-76
2021/12/20 03:16:42;;;;;;;10.90;2.93;;;5.30;99.90;;;;;;5034902;28;20460;-76
2021/12/20 03:19:09;;;;;;;9.53;2.90;;;5.30;99.90;;;;;;5032827;28;20600;-76
2021/12/20 03:21:36;;;;;;;12.60;3.20;;;5.30;99.90;;;;;;5032528;28;20457;-76
2021/12/20 03:24:03;;;;;;;14.50;3.30;;;5.30;99.90;;;;;;5032534;28;20573;-76
2021/12/20 03:26:31;;;;;;;13.97;3.57;;;5.30;99.90;;;;;;5032342;28;20454;-76
2021/12/20 03:28:58;;;;;;;11.00;2.50;;;5.30;99.90;;;;;;5032455;28;20885;-76
2021/12/20 03:31:25;;;;;;;14.90;3.00;;;5.20;99.90;;;;;;5037728;28;20499;-75
2021/12/20 03:33:52;;;;;;;14.03;3.30;;;5.20;99.90;;;;;;5032091;28;20453;-76
2021/12/20 03:36:19;;;;;;;19.73;3.20;;;5.10;99.90;;;;;;5031761;28;20449;-76
2021/12/20 03:38:45;;;;;;;13.60;3.47;;;5.10;99.90;;;;;;5042515;28;20480;-75
2021/12/20 03:41:12;;;;;;;11.60;3.17;;;5.10;99.90;;;;;;5033603;28;20457;-76
2021/12/20 03:43:40;;;;;;;11.73;3.77;;;5.00;99.90;;;;;;5032080;28;20515;-76
2021/12/20 03:46:07;;;;;;;11.50;3.47;;;5.00;99.90;;;;;;5035074;28;20852;-76
2021/12/20 03:48:34;;;;;;;10.13;3.57;;;4.90;99.90;;;;;;5031863;28;20457;-76
2021/12/20 03:51:02;;;;;;;15.00;4.27;;;4.90;99.90;;;;;;5031929;28;20991;-76
2021/12/20 03:53:31;;;;;;;13.60;4.60;;;4.90;99.90;;;;;;5031969;28;20449;-76
2021/12/20 03:55:58;;;;;;;16.03;4.70;;;4.80;99.90;;;;;;5084423;22;20502;-72
2021/12/20 03:58:27;;;;;;;17.93;4.00;;;4.80;99.90;;;;;;5072092;28;20486;-72
2021/12/20 04:00:56;;;;;;;21.33;4.70;;;4.80;99.90;;;;;;5065220;28;20530;-72
2021/12/20 04:03:23;;;;;;;15.27;4.93;;;4.70;99.90;;;;;;5067940;28;20474;-71
2021/12/20 04:05:49;;;;;;;19.40;4.43;;;4.70;99.90;;;;;;5056960;28;20840;-72
2021/12/20 04:08:16;;;;;;;33.93;4.27;;;4.70;99.90;;;;;;5052183;28;20494;-71
2021/12/20 04:10:43;;;;;;;17.07;4.37;;;4.70;99.90;;;;;;5044567;28;20449;-72
2021/12/20 04:13:10;;;;;;;10.20;3.93;;;4.70;99.90;;;;;;5031962;28;20881;-72
2021/12/20 04:15:36;;;;;;;22.33;4.97;;;4.70;99.90;;;;;;5035185;28;20886;-72
2021/12/20 04:18:05;;;;;;;14.90;5.20;;;4.60;99.90;;;;;;5032204;28;20534;-72
2021/12/20 04:20:31;;;;;;;21.80;4.47;;;4.60;99.90;;;;;;5032439;28;20449;-72
2021/12/20 04:22:58;;;;;;;19.03;4.90;;;4.60;99.90;;;;;;5031941;28;21003;-72
2021/12/20 04:25:25;;;;;;;22.93;4.33;;;4.60;99.90;;;;;;5031567;28;20516;-72
2021/12/20 04:27:52;;;;;;;20.70;4.00;;;4.50;99.90;;;;;;5039295;28;20932;-72
2021/12/20 04:30:19;;;;;;;16.50;3.67;;;4.50;99.90;;;;;;5049868;28;20450;-72
2021/12/20 04:32:47;;;;;;;13.80;3.53;;;4.50;99.90;;;;;;5051866;28;20517;-72
2021/12/20 04:35:16;;;;;;;19.10;5.13;;;4.50;99.90;;;;;;5051053;28;20983;-72
2021/12/20 04:37:46;;;;;;;23.20;4.57;;;4.40;99.90;;;;;;5051760;28;20606;-72
2021/12/20 04:40:18;;;;;;;18.03;4.60;;;4.40;99.90;;;;;;5041273;28;20511;-72
2021/12/20 04:42:45;;;;;;;19.00;4.57;;;4.30;99.90;;;;;;5032023;28;20540;-72
2021/12/20 04:45:12;;;;;;;10.67;3.93;;;4.30;99.90;;;;;;5034849;28;20546;-72
2021/12/20 04:47:39;;;;;;;12.77;4.13;;;4.30;99.90;;;;;;5031703;28;20441;-72
2021/12/20 04:50:06;;;;;;;19.70;3.83;;;4.20;99.90;;;;;;5031571;28;20475;-72
2021/12/20 04:52:35;;;;;;;15.40;4.63;;;4.20;99.90;;;;;;5032310;28;20495;-72
2021/12/20 04:55:02;;;;;;;17.00;4.20;;;4.20;99.90;;;;;;5050983;28;20971;-72
2021/12/20 04:57:29;;;;;;;19.83;4.20;;;4.20;99.90;;;;;;5051448;28;20801;-73
2021/12/20 04:59:55;;;;;;;18.90;4.10;;;4.10;99.90;;;;;;5051088;28;20876;-72
2021/12/20 05:02:22;;;;;;;16.87;4.10;;;4.10;99.90;;;;;;5032498;28;20840;-72
2021/12/20 05:04:49;;;;;;;10.43;3.60;;;4.10;99.90;;;;;;5031243;28;20499;-72
2021/12/20 05:07:16;;;;;;;32.63;3.80;;;4.00;99.90;;;;;;5031452;28;20453;-72
2021/12/20 05:09:44;;;;;;;21.10;3.40;;;4.00;99.90;;;;;;5031599;28;20446;-72
2021/12/20 05:12:12;;;;;;;15.77;3.60;;;4.00;99.90;;;;;;5031485;28;20438;-72
2021/12/20 05:14:41;;;;;;;19.53;4.37;;;4.00;99.90;;;;;;5031440;28;20473;-72
2021/12/20 05:17:08;;;;;;;19.40;3.77;;;4.00;99.90;;;;;;5033694;28;20540;-72
2021/12/20 05:19:35;;;;;;;18.23;4.03;;;4.00;99.90;;;;;;5044682;28;20487;-72
2021/12/20 05:22:02;;;;;;;16.10;3.57;;;3.90;99.90;;;;;;5051539;28;20448;-72
2021/12/20 05:24:28;;;;;;;18.27;3.80;;;3.90;99.90;;;;;;5051297;28;20530;-72
2021/12/20 05:26:57;;;;;;;28.03;4.13;;;3.90;99.90;;;;;;5051000;28;20876;-72
2021/12/20 05:29:24;;;;;;;20.50;3.70;;;3.90;99.90;;;;;;5051325;28;20453;-72
2021/12/20 05:31:51;;;;;;;8.83;2.90;;;3.80;99.90;;;;;;5036640;28;20457;-72
2021/12/20 05:34:18;;;;;;;20.83;3.43;;;3.80;99.90;;;;;;5030800;28;20480;-72
2021/12/20 05:36:45;;;;;;;24.50;4.60;;;3.80;99.90;;;;;;5030818;28;20449;-72
2021/12/20 05:39:11;;;;;;;16.20;4.10;;;3.70;99.90;;;;;;5031235;28;20488;-72
2021/12/20 05:41:38;;;;;;;17.40;3.60;;;3.60;99.90;;;;;;5031316;28;20453;-72
2021/12/20 05:44:06;;;;;;;14.57;3.70;;;3.60;99.90;;;;;;5035681;28;20527;-72
2021/12/20 05:46:33;;;;;;;18.90;4.97;;;3.50;99.90;;;;;;5038640;28;20499;-72
2021/12/20 05:49:00;;;;;;;20.23;3.97;;;3.40;99.90;;;;;;5034643;28;20449;-72
2021/12/20 05:51:27;;;;;;;15.37;4.30;;;3.40;99.90;;;;;;5034784;28;20452;-72
2021/12/20 05:53:54;;;;;;;14.33;3.80;;;3.30;99.90;;;;;;5034691;28;20445;-74
2021/12/20 05:56:20;;;;;;;13.50;3.43;;;3.20;99.90;;;;;;5033981;28;20480;-72
2021/12/20 05:58:47;;;;;;;18.10;4.10;;;3.10;99.90;;;;;;5034856;28;20904;-72
2021/12/20 06:01:15;;;;;;;20.27;4.47;;;3.10;99.90;;;;;;5038167;28;20500;-72
2021/12/20 06:03:42;;;;;;;20.17;4.83;;;3.00;99.90;;;;;;5034591;28;20507;-72
2021/12/20 06:06:09;;;;;;;24.77;4.10;;;2.90;99.90;;;;;;5034013;28;20473;-72
2021/12/20 06:08:36;;;;;;;26.60;5.00;;;2.90;99.90;;;;;;5034822;28;20536;-72
2021/12/20 06:11:03;;;;;;;18.70;4.20;;;2.80;99.90;;;;;;5040958;28;20511;-72
2021/12/20 06:13:29;;;;;;;29.43;4.73;;;2.80;99.90;;;;;;5034675;28;20511;-73
2021/12/20 06:15:56;;;;;;;18.17;4.30;;;2.80;99.90;;;;;;5035360;28;20899;-72
2021/12/20 06:18:24;;;;;;;20.13;4.20;;;2.70;99.90;;;;;;5043865;28;20480;-72
2021/12/20 06:20:51;;;;;;;20.87;4.37;;;2.70;99.90;;;;;;5054137;28;20478;-72
2021/12/20 06:23:17;;;;;;;29.43;5.63;;;2.60;99.90;;;;;;5054186;28;20510;-72
2021/12/20 06:25:44;;;;;;;21.77;5.80;;;2.60;99.90;;;;;;5053525;28;20472;-72
2021/12/20 06:28:11;;;;;;;60.17;11.80;;;2.60;99.90;;;;;;5054385;28;20449;-72
2021/12/20 06:30:38;;;;;;;32.77;6.70;;;2.60;99.90;;;;;;5049612;28;20876;-72
2021/12/20 06:33:05;;;;;;;26.07;4.07;;;2.50;99.90;;;;;;5033536;28;20941;-72
2021/12/20 06:35:33;;;;;;;17.43;3.77;;;2.50;99.90;;;;;;5033946;28;20477;-72
2021/12/20 06:38:01;;;;;;;22.93;3.77;;;2.40;99.90;;;;;;5034049;28;20457;-72
2021/12/20 06:40:29;;;;;;;25.83;4.70;;;2.40;99.90;;;;;;5034004;28;20449;-73
2021/12/20 06:42:56;;;;;;;20.07;4.63;;;2.30;99.90;;;;;;5035800;28;20462;-72
2021/12/20 06:45:22;;;;;;;19.17;4.93;;;2.30;99.90;;;;;;5050696;28;20468;-72
2021/12/20 06:47:49;;;;;;;16.03;4.40;;;2.20;99.90;;;;;;5033644;28;20527;-72
2021/12/20 06:50:16;;;;;;;40.80;9.00;;;2.20;99.90;;;;;;5033837;28;20507;-72
2021/12/20 06:52:44;;;;;;;30.67;5.50;;;2.10;99.90;;;;;;5033591;28;20446;-72
2021/12/20 06:55:11;;;;;;;27.63;6.23;;;2.10;99.90;;;;;;5033445;28;20489;-72
2021/12/20 06:57:39;;;;;;;22.27;5.37;;;2.10;99.90;;;;;;5033333;28;20449;-72
2021/12/20 07:00:07;;;;;;;29.77;5.67;;;2.10;99.90;;;;;;5038584;28;20571;-74
2021/12/20 07:02:34;;;;;;;17.83;5.63;;;2.10;99.90;;;;;;5033334;28;20461;-74
2021/12/20 07:05:00;;;;;;;19.67;4.47;;;2.00;99.90;;;;;;5033737;28;20465;-74
2021/12/20 07:07:28;;;;;;;24.10;4.47;;;2.00;99.90;;;;;;5033629;28;20484;-74
2021/12/20 07:09:56;;;;;;;23.67;4.80;;;2.00;99.90;;;;;;5044656;28;20456;-74
2021/12/20 07:12:23;;;;;;;31.37;4.87;;;2.00;99.90;;;;;;5033352;28;20641;-74
2021/12/20 07:14:51;;;;;;;23.07;4.33;;;2.00;99.90;;;;;;5034248;28;20472;-74
2021/12/20 07:17:18;;;;;;;19.63;4.93;;;1.90;99.90;;;;;;5035022;28;20548;-73
2021/12/20 07:19:45;;;;;;;14.43;3.87;;;2.00;99.90;;;;;;5033505;28;20484;-73
2021/12/20 07:22:11;;;;;;;17.93;4.80;;;2.00;99.90;;;;;;5033622;28;20453;-73
2021/12/20 07:24:38;;;;;;;17.30;4.07;;;2.00;99.90;;;;;;5033216;28;20474;-73
2021/12/20 07:27:09;;;;;;;30.57;6.47;;;2.00;99.90;;;;;;5033358;28;20576;-74
2021/12/20 07:29:37;;;;;;;30.13;7.63;;;2.10;99.90;;;;;;5033369;28;20511;-73
2021/12/20 07:32:04;;;;;;;22.93;7.03;;;2.30;99.90;;;;;;5034441;28;20504;-73
2021/12/20 07:34:31;;;;;;;30.43;5.90;;;2.20;99.90;;;;;;5033044;28;20604;-73
2021/12/20 07:36:57;;;;;;;23.23;4.63;;;2.20;99.90;;;;;;5050475;28;20498;-73
2021/12/20 07:39:24;;;;;;;25.30;4.70;;;2.20;99.90;;;;;;5049176;28;20547;-73
2021/12/20 07:41:51;;;;;;;36.33;4.60;;;2.20;99.90;;;;;;5032651;28;20449;-73
2021/12/20 07:44:19;;;;;;;23.27;5.13;;;2.20;99.90;;;;;;5033317;28;20548;-73
2021/12/20 07:46:46;;;;;;;20.77;5.13;;;2.20;99.90;;;;;;5045768;28;20952;-73
2021/12/20 07:49:13;;;;;;;30.07;4.93;;;2.20;99.90;;;;;;5051967;28;20498;-73
2021/12/20 07:51:40;;;;;;;16.50;4.83;;;2.20;99.90;;;;;;5043062;28;20519;-73
2021/12/20 07:54:07;;;;;;;22.20;4.57;;;2.30;99.90;;;;;;5040952;28;20461;-73
2021/12/20 07:56:34;;;;;;;29.53;5.50;;;2.30;99.90;;;;;;5049138;28;20817;-74
2021/12/20 07:59:01;;;;;;;30.20;4.90;;;2.30;99.90;;;;;;5049688;28;20534;-74
2021/12/20 08:01:29;;;;;;;24.07;4.60;;;2.30;99.90;;;;;;5041104;28;20861;-73
2021/12/20 08:03:55;;;;;;;28.03;4.70;;;2.30;99.90;;;;;;5042401;28;20948;-73
2021/12/20 08:06:22;;;;;;;24.17;5.00;;;2.30;99.90;;;;;;5051705;28;20530;-74
2021/12/20 08:08:49;;;;;;;18.97;4.83;;;2.40;99.90;;;;;;5047263;28;20555;-75
2021/12/20 08:11:16;;;;;;;20.73;5.60;;;2.80;99.90;;;;;;5040814;28;20453;-74
2021/12/20 08:13:45;;;;;;;21.17;4.87;;;3.60;99.90;;;;;;5050470;28;20514;-75
2021/12/20 08:16:12;;;;;;;22.23;4.73;;;4.40;99.90;;;;;;5038833;28;20501;-75
2021/12/20 08:18:41;;;;;;;25.88;5.47;;;4.90;99.90;;;;;;5045502;28;20914;-73
2021/12/20 08:21:08;;;;;;;14.83;5.83;;;5.20;99.90;;;;;;5033774;28;20201;-73
2021/12/20 08:23:35;;;;;;;19.80;5.07;;;5.10;99.90;;;;;;5033292;28;20462;-73
2021/12/20 08:26:02;;;;;;;37.07;6.77;;;4.80;99.90;;;;;;5040876;28;21233;-73
2021/12/20 08:28:30;;;;;;;20.47;5.30;;;4.80;99.90;;;;;;5047773;28;20456;-73
2021/12/20 08:30:57;;;;;;;22.40;6.10;;;5.20;99.90;;;;;;5041568;28;20456;-72
2021/12/20 08:33:23;;;;;;;22.10;5.70;;;5.50;99.90;;;;;;5051024;28;20521;-73
2021/12/20 08:35:53;;;;;;;32.97;4.70;;;6.20;99.90;;;;;;5045048;28;20526;-73
2021/12/20 08:38:20;;;;;;;21.03;5.43;;;6.60;99.90;;;;;;5051480;28;20889;-73
2021/12/20 08:40:48;;;;;;;15.97;5.30;;;6.70;99.90;;;;;;5044784;28;20543;-73
2021/12/20 08:43:16;;;;;;;32.13;6.47;;;6.70;99.90;;;;;;5050923;28;20464;-73
2021/12/20 08:45:43;;;;;;;22.67;5.03;;;6.70;99.90;;;;;;5034483;28;20515;-73
2021/12/20 08:48:10;;;;;;;27.33;5.87;;;6.60;99.90;;;;;;5050449;28;20452;-76
2021/12/20 08:50:37;;;;;;;18.07;4.87;;;6.60;99.90;;;;;;5032241;28;20504;-72
2021/12/20 08:53:05;;;;;;;26.37;5.23;;;6.50;99.90;;;;;;5034422;28;20457;-73
2021/12/20 08:55:32;;;;;;;36.40;7.20;;;6.40;99.90;;;;;;5031700;28;20477;-72
2021/12/20 08:57:58;;;;;;;24.30;5.43;;;6.40;99.90;;;;;;5030370;28;20453;-72
2021/12/20 09:00:27;;;;;;;12.87;5.00;;;6.40;99.90;;;;;;5032716;28;20485;-72
2021/12/20 09:02:55;;;;;;;14.43;4.93;;;6.30;99.90;;;;;;5041045;28;20453;-73
2021/12/20 09:05:23;;;;;;;18.10;4.40;;;6.30;99.90;;;;;;5030828;28;20531;-72
2021/12/20 09:07:50;;;;;;;18.17;4.50;;;6.30;99.90;;;;;;5048114;28;20452;-72
2021/12/20 09:10:18;;;;;;;22.10;4.50;;;6.30;99.90;;;;;;5045213;28;20519;-72
2021/12/20 09:12:46;;;;;;;16.97;4.90;;;6.30;99.90;;;;;;5032347;28;20511;-72
2021/12/20 09:15:17;;;;;;;22.20;4.40;;;6.30;99.90;;;;;;5031743;28;20520;-72
2021/12/20 09:17:45;;;;;;;21.13;4.53;;;6.10;99.90;;;;;;5043163;28;20544;-72
2021/12/20 09:20:13;;;;;;;21.17;4.73;;;6.00;99.90;;;;;;5033409;28;20478;-72
2021/12/20 09:22:50;;;;;;;20.13;3.80;;;5.80;99.90;;;;;;5033328;28;20449;-72
2021/12/20 09:25:19;;;;;;;16.90;5.33;;;5.70;99.90;;;;;;5046422;28;20995;-72
2021/12/20 09:27:45;;;;;;;24.07;4.70;;;5.60;99.90;;;;;;5054632;28;20498;-72
2021/12/20 09:30:12;;;;;;;23.40;4.30;;;5.50;99.90;;;;;;5054179;28;20510;-72
2021/12/20 09:32:39;;;;;;;23.40;4.80;;;5.50;99.90;;;;;;5054251;28;20494;-72
2021/12/20 09:35:07;;;;;;;13.80;4.40;;;5.60;99.90;;;;;;5049027;28;21080;-71
2021/12/20 09:37:34;;;;;;;29.73;4.90;;;5.80;99.90;;;;;;5039913;28;20465;-71
2021/12/20 09:40:03;;;;;;;13.50;4.50;;;6.20;99.90;;;;;;5048271;28;20484;-72
2021/12/20 09:42:33;;;;;;;27.37;5.73;;;6.50;99.90;;;;;;5054024;28;20518;-72
2021/12/20 09:45:01;;;;;;;13.20;4.63;;;6.80;99.90;;;;;;5051659;28;20541;-72
2021/12/20 09:47:31;;;;;;;16.93;4.83;;;7.00;99.90;;;;;;5053821;28;20535;-71
2021/12/20 09:50:01;;;;;;;15.77;4.67;;;7.20;99.90;;;;;;5043837;28;20453;-72
2021/12/20 09:52:28;;;;;;;13.80;4.10;;;7.40;99.90;;;;;;5041426;28;20452;-71
2021/12/20 09:54:54;;;;;;;20.67;4.23;;;7.70;99.90;;;;;;5040486;28;20476;-74
2021/12/20 09:57:22;;;;;;;17.53;3.80;;;7.80;99.90;;;;;;5062987;22;21055;-74
2021/12/20 09:59:52;;;;;;;16.40;3.60;;;8.20;99.90;;;;;;5020163;28;20492;-74
2021/12/20 10:02:21;;;;;;;12.87;3.63;;;8.50;99.90;;;;;;5029350;28;20454;-75
2021/12/20 10:04:48;;;;;;;25.90;4.17;;;8.50;99.90;;;;;;5035311;28;20453;-75
2021/12/20 10:07:18;;;;;;;10.37;3.60;;;8.70;99.90;;;;;;5033542;28;20484;-74
2021/12/20 10:09:47;;;;;;;18.73;4.47;;;8.90;99.90;;;;;;5035445;28;20461;-75
2021/12/20 10:12:22;;;;;;;15.53;4.20;;;9.10;99.90;;;;;;5030947;28;20874;-75
2021/12/20 10:15:00;;;;;;;7.90;4.30;;;9.30;99.90;;;;;;5034969;28;21141;-75
2021/12/20 10:17:29;;;;;;;11.80;4.03;;;9.30;99.90;;;;;;5024684;28;20489;-74
2021/12/20 10:19:56;;;;;;;13.83;3.90;;;9.10;99.90;;;;;;5034497;28;20484;-75
2021/12/20 10:22:25;;;;;;;19.17;4.10;;;9.20;99.90;;;;;;5034933;28;20450;-75
2021/12/20 10:24:52;;;;;;;14.70;3.80;;;9.20;99.90;;;;;;5034266;28;20465;-75
2021/12/20 10:27:33;;;;;;;22.00;3.97;;;9.30;99.90;;;;;;5034917;28;20534;-74
2021/12/20 10:30:19;;;;;;;13.87;3.90;;;9.30;99.90;;;;;;5034556;28;20461;-74
2021/12/20 10:32:46;;;;;;;12.93;3.40;;;8.80;99.90;;;;;;5030523;28;20507;-76
2021/12/20 10:35:34;;;;;;;16.17;4.20;;;9.00;99.90;;;;;;5014967;28;20446;-76
2021/12/20 10:38:03;;;;;;;17.57;4.43;;;9.30;99.90;;;;;;5010094;28;20477;-77
2021/12/20 10:40:30;;;;;;;21.67;5.30;;;9.60;99.90;;;;;;5010901;28;20547;-77
2021/12/20 10:42:59;;;;;;;22.30;5.40;;;9.90;99.90;;;;;;5008820;28;20462;-75
2021/12/20 10:45:27;;;;;;;13.33;4.83;;;10.20;99.90;;;;;;5008983;28;20466;-74
2021/12/20 10:47:54;;;;;;;17.00;4.50;;;10.30;99.90;;;;;;5008283;28;20488;-74
2021/12/20 10:50:27;;;;;;;18.23;4.73;;;10.40;99.90;;;;;;5011242;28;20485;-74
2021/12/20 10:53:11;;;;;;;17.33;4.27;;;10.40;99.90;;;;;;5012235;28;20451;-73
2021/12/20 10:55:40;;;;;;;28.43;5.00;;;10.30;99.90;;;;;;5015357;28;20942;-74
2021/12/20 10:58:31;;;;;;;23.93;5.77;;;10.30;99.90;;;;;;5024166;28;20547;-74
2021/12/20 11:04:05;;;;;;;16.70;4.27;;;10.20;99.90;;;;;;5004088;28;20455;-73
2021/12/20 11:09:18;;;;;;;15.03;4.40;;;10.20;99.90;;;;;;4994657;28;20434;-74
2021/12/20 11:11:48;;;;;;;15.50;4.10;;;10.40;99.90;;;;;;5013657;28;20528;-74
2021/12/20 11:14:15;;;;;;;10.60;4.30;;;10.50;99.90;;;;;;5012570;28;20458;-74
2021/12/20 11:16:45;;;;;;;16.60;4.10;;;10.60;99.90;;;;;;5032895;28;20457;-74
2021/12/20 11:19:24;;;;;;;13.83;3.80;;;10.80;99.90;;;;;;5032158;28;20461;-74
2021/12/20 11:21:58;;;;;;;13.47;3.30;;;10.70;99.90;;;;;;5029737;28;20876;-74
2021/12/20 11:24:28;;;;;;;9.53;3.50;;;10.40;99.90;;;;;;5034596;28;20449;-74
2021/12/20 11:26:56;;;;;;;10.57;3.80;;;10.40;99.90;;;;;;5031533;28;20466;-74
2021/12/20 11:29:23;;;;;;;13.50;4.80;;;10.10;99.90;;;;;;5031019;28;20450;-74
2021/12/20 11:31:53;;;;;;;19.17;3.83;;;10.30;99.90;;;;;;5023722;28;20488;-74
2021/12/20 11:34:20;;;;;;;13.70;3.73;;;10.00;99.90;;;;;;5034367;28;20449;-73
2021/12/20 11:36:47;;;;;;;16.17;3.67;;;10.30;99.90;;;;;;5034466;28;20452;-74
2021/12/20 11:39:14;;;;;;;15.03;4.50;;;10.30;99.90;;;;;;5030531;28;20472;-74
2021/12/20 11:41:41;;;;;;;15.83;3.93;;;10.30;99.90;;;;;;5027985;28;20481;-73
2021/12/20 11:44:14;;;;;;;15.67;3.90;;;10.40;99.90;;;;;;5032753;28;20541;-74
2021/12/20 11:46:50;;;;;;;19.70;4.27;;;10.60;99.90;;;;;;5019244;28;20857;-74
2021/12/20 11:49:21;;;;;;;14.53;4.13;;;10.70;99.90;;;;;;5023881;28;20974;-74
2021/12/20 11:52:13;;;;;;;11.47;3.60;;;10.50;99.90;;;;;;5020267;28;20446;-75
2021/12/20 11:54:43;;;;;;;9.73;3.60;;;10.50;99.90;;;;;;5023601;28;20453;-74
2021/12/20 11:57:34;;;;;;;21.53;4.23;;;10.40;99.90;;;;;;5022946;28;20485;-74
2021/12/20 12:00:02;;;;;;;8.00;3.03;;;10.40;99.90;;;;;;5027332;28;20489;-75
2021/12/20 12:02:31;;;;;;;11.73;3.30;;;10.50;99.90;;;;;;5030899;28;20461;-75
2021/12/20 12:05:06;;;;;;;12.50;4.13;;;10.80;99.90;;;;;;5032202;28;20457;-75
2021/12/20 12:07:35;;;;;;;13.67;3.80;;;10.40;99.90;;;;;;5022176;28;20540;-74
2021/12/20 12:10:07;;;;;;;10.33;3.30;;;10.30;99.90;;;;;;5015659;28;20526;-74
2021/12/20 12:12:40;;;;;;;13.83;3.90;;;10.40;99.90;;;;;;5031932;28;20450;-75
2021/12/20 12:15:09;;;;;;;11.67;3.60;;;10.70;99.90;;;;;;5032400;28;20453;-75
2021/12/20 12:17:59;;;;;;;12.67;3.70;;;10.80;99.90;;;;;;5020436;28;20475;-74
2021/12/20 12:20:47;;;;;;;18.37;3.83;;;11.10;99.90;;;;;;5033315;28;20489;-75
2021/12/20 12:23:17;;;;;;;11.90;4.03;;;11.20;99.90;;;;;;5032324;28;20960;-74
2021/12/20 12:25:47;;;;;;;14.23;3.37;;;10.80;99.90;;;;;;5032405;28;20441;-74
2021/12/20 12:28:15;;;;;;;14.17;4.10;;;10.50;99.90;;;;;;5031924;28;21000;-74
2021/12/20 12:30:44;;;;;;;11.40;3.87;;;10.20;99.90;;;;;;5033374;28;20448;-74
2021/12/20 12:33:25;;;;;;;9.50;4.20;;;10.30;99.90;;;;;;5025051;28;20951;-75
2021/12/20 12:35:56;;;;;;;18.20;5.50;;;10.50;99.90;;;;;;5025639;28;20453;-74
2021/12/20 12:38:26;;;;;;;20.80;4.07;;;10.70;99.90;;;;;;5031128;28;20465;-75
2021/12/20 12:41:12;;;;;;;11.17;3.60;;;11.00;99.90;;;;;;5028115;28;20520;-75
2021/12/20 12:43:54;;;;;;;10.93;3.40;;;11.20;99.90;;;;;;5031073;28;21005;-75
2021/12/20 12:46:51;;;;;;;8.33;2.70;;;11.30;99.90;;;;;;5032083;28;20454;-76
2021/12/20 12:49:37;;;;;;;5.57;2.40;;;11.40;99.90;;;;;;5031436;28;20460;-75
2021/12/20 12:52:08;;;;;;;3.80;2.50;;;11.30;99.90;;;;;;5020483;28;20445;-75
2021/12/20 12:54:43;;;;;;;3.27;2.27;;;11.10;99.90;;;;;;5009256;28;21040;-76
2021/12/20 12:57:44;;;;;;;9.90;2.93;;;10.90;99.90;;;;;;5009082;28;21012;-75
2021/12/20 13:00:32;;;;;;;9.27;2.53;;;10.70;99.90;;;;;;4974754;28;20495;-75
2021/12/20 13:03:12;;;;;;;14.13;2.83;;;10.60;99.90;;;;;;4972315;28;20495;-75
2021/12/20 13:05:39;;;;;;;10.53;2.97;;;10.50;99.90;;;;;;5005435;28;20454;-75
2021/12/20 13:08:08;;;;;;;8.07;3.13;;;10.50;99.90;;;;;;5021792;28;20475;-76
2021/12/20 13:10:39;;;;;;;8.33;2.30;;;10.40;99.90;;;;;;5024380;28;20490;-75
2021/12/20 13:13:10;;;;;;;10.90;2.60;;;10.40;99.90;;;;;;5024696;28;20450;-75
2021/12/20 13:15:41;;;;;;;4.23;2.10;;;10.40;99.90;;;;;;5023233;28;20455;-75
2021/12/20 13:18:14;;;;;;;6.37;2.40;;;9.90;99.90;;;;;;5024934;28;20477;-75